Terminal Aerodrome Forecast
Issued by NWS

Home | Current Version | Previous Version | Graphics & Text | Print | Product List | Glossary On
Versions: 1 2 3 4 5 6 7 8 9 10 11 12 13 14 15 16 17 18 19 20 21 22 23 24 25 26 27
000
FTUS45 KGGW 242300
TAFOLF
TAF
KOLF 242326Z 2500/2524 32019KT P6SM SCT015 BKN025 OVC060
      TEMPO 2500/2503 4SM -SHRA OVC020
     FM250300 30016KT P6SM OVC025
      TEMPO 2503/2506 5SM -RA OVC015
     FM251500 30008KT P6SM SCT040 BKN100=

USA.gov is the U.S. government's official web portal to all federal, state and local government web resources and services.